sensor_id;sensor_type;location;lat;lon;timestamp;temperature;humidity
12119;DHT22;6123;48.864;9.200;2024-03-22T00:01:55;9.60;99.90
12119;DHT22;6123;48.864;9.200;2024-03-22T00:04:21;9.40;99.90
12119;DHT22;6123;48.864;9.200;2024-03-22T00:06:47;9.40;99.90
12119;DHT22;6123;48.864;9.200;2024-03-22T00:09:14;9.50;99.90
12119;DHT22;6123;48.864;9.200;2024-03-22T00:11:40;9.50;99.90
12119;DHT22;6123;48.864;9.200;2024-03-22T00:14:06;9.50;99.90
12119;DHT22;6123;48.864;9.200;2024-03-22T00:16:33;9.60;99.90
12119;DHT22;6123;48.864;9.200;2024-03-22T00:18:58;9.70;99.90
12119;DHT22;6123;48.864;9.200;2024-03-22T00:21:24;9.70;99.90
12119;DHT22;6123;48.864;9.200;2024-03-22T00:23:50;9.70;99.90
12119;DHT22;6123;48.864;9.200;2024-03-22T00:26:15;9.70;99.90
12119;DHT22;6123;48.864;9.200;2024-03-22T00:28:41;9.60;99.90
12119;DHT22;6123;48.864;9.200;2024-03-22T00:31:08;9.50;99.90
12119;DHT22;6123;48.864;9.200;2024-03-22T00:33:33;9.40;99.90
12119;DHT22;6123;48.864;9.200;2024-03-22T00:35:59;9.30;99.90
12119;DHT22;6123;48.864;9.200;2024-03-22T00:38:25;9.20;99.90
12119;DHT22;6123;48.864;9.200;2024-03-22T00:40:50;9.10;99.90
12119;DHT22;6123;48.864;9.200;2024-03-22T00:43:16;9.10;99.90
12119;DHT22;6123;48.864;9.200;2024-03-22T00:45:42;9.10;99.90
12119;DHT22;6123;48.864;9.200;2024-03-22T00:48:07;9.00;99.90
12119;DHT22;6123;48.864;9.200;2024-03-22T00:50:33;9.00;99.90
12119;DHT22;6123;48.864;9.200;2024-03-22T00:52:58;9.10;99.90
12119;DHT22;6123;48.864;9.200;2024-03-22T00:55:24;9.10;99.90
12119;DHT22;6123;48.864;9.200;2024-03-22T00:57:51;9.20;99.90
12119;DHT22;6123;48.864;9.200;2024-03-22T01:00:17;9.20;99.90
12119;DHT22;6123;48.864;9.200;2024-03-22T01:02:43;9.20;99.90
12119;DHT22;6123;48.864;9.200;2024-03-22T01:05:09;9.00;99.90
12119;DHT22;6123;48.864;9.200;2024-03-22T01:07:36;8.80;99.90
12119;DHT22;6123;48.864;9.200;2024-03-22T01:10:05;8.70;99.90
12119;DHT22;6123;48.864;9.200;2024-03-22T01:12:31;8.80;99.90
12119;DHT22;6123;48.864;9.200;2024-03-22T01:14:57;8.80;99.90
12119;DHT22;6123;48.864;9.200;2024-03-22T01:17:23;8.70;99.90
12119;DHT22;6123;48.864;9.200;2024-03-22T01:19:49;8.50;99.90
12119;DHT22;6123;48.864;9.200;2024-03-22T01:22:14;8.50;99.90
12119;DHT22;6123;48.864;9.200;2024-03-22T01:24:40;8.40;99.90
12119;DHT22;6123;48.864;9.200;2024-03-22T01:27:05;8.40;99.90
12119;DHT22;6123;48.864;9.200;2024-03-22T01:29:31;8.50;99.90
12119;DHT22;6123;48.864;9.200;2024-03-22T01:31:58;8.40;99.90
12119;DHT22;6123;48.864;9.200;2024-03-22T01:34:23;8.40;99.90
12119;DHT22;6123;48.864;9.200;2024-03-22T01:36:49;8.30;99.90
12119;DHT22;6123;48.864;9.200;2024-03-22T01:39:15;8.40;99.90
12119;DHT22;6123;48.864;9.200;2024-03-22T01:41:41;8.30;99.90
12119;DHT22;6123;48.864;9.200;2024-03-22T01:44:06;8.30;99.90
12119;DHT22;6123;48.864;9.200;2024-03-22T01:46:32;8.20;99.90
12119;DHT22;6123;48.864;9.200;2024-03-22T01:48:57;8.20;99.90
12119;DHT22;6123;48.864;9.200;2024-03-22T01:51:23;8.00;99.90
12119;DHT22;6123;48.864;9.200;2024-03-22T01:53:49;8.00;99.90
12119;DHT22;6123;48.864;9.200;2024-03-22T01:56:15;8.10;99.90
12119;DHT22;6123;48.864;9.200;2024-03-22T01:58:41;8.10;99.90
12119;DHT22;6123;48.864;9.200;2024-03-22T02:01:07;8.10;99.90
12119;DHT22;6123;48.864;9.200;2024-03-22T02:03:33;8.10;99.90
12119;DHT22;6123;48.864;9.200;2024-03-22T02:05:58;8.00;99.90
12119;DHT22;6123;48.864;9.200;2024-03-22T02:08:24;8.00;99.90
12119;DHT22;6123;48.864;9.200;2024-03-22T02:10:49;7.90;99.90
12119;DHT22;6123;48.864;9.200;2024-03-22T02:13:15;7.90;99.90
12119;DHT22;6123;48.864;9.200;2024-03-22T02:15:40;7.90;99.90
12119;DHT22;6123;48.864;9.200;2024-03-22T02:18:06;7.80;99.90
12119;DHT22;6123;48.864;9.200;2024-03-22T02:20:31;7.70;99.90
12119;DHT22;6123;48.864;9.200;2024-03-22T02:22:57;7.70;99.90
12119;DHT22;6123;48.864;9.200;2024-03-22T02:25:22;7.80;99.90
12119;DHT22;6123;48.864;9.200;2024-03-22T02:27:48;7.80;99.90
12119;DHT22;6123;48.864;9.200;2024-03-22T02:30:16;7.80;99.90
12119;DHT22;6123;48.864;9.200;2024-03-22T02:32:42;7.70;99.90
12119;DHT22;6123;48.864;9.200;2024-03-22T02:35:08;7.70;99.90
12119;DHT22;6123;48.864;9.200;2024-03-22T02:37:33;7.70;99.90
12119;DHT22;6123;48.864;9.200;2024-03-22T02:39:59;7.60;99.90
12119;DHT22;6123;48.864;9.200;2024-03-22T02:42:24;7.60;99.90
12119;DHT22;6123;48.864;9.200;2024-03-22T02:44:50;7.60;99.90
12119;DHT22;6123;48.864;9.200;2024-03-22T02:47:15;7.50;99.90
12119;DHT22;6123;48.864;9.200;2024-03-22T02:49:41;7.40;99.90
12119;DHT22;6123;48.864;9.200;2024-03-22T02:52:07;7.40;99.90
12119;DHT22;6123;48.864;9.200;2024-03-22T02:54:32;7.40;99.90
12119;DHT22;6123;48.864;9.200;2024-03-22T02:56:58;7.50;99.90
12119;DHT22;6123;48.864;9.200;2024-03-22T02:59:26;7.70;99.90
12119;DHT22;6123;48.864;9.200;2024-03-22T03:01:52;7.80;99.90
12119;DHT22;6123;48.864;9.200;2024-03-22T03:04:18;7.90;99.90
12119;DHT22;6123;48.864;9.200;2024-03-22T03:06:43;7.90;99.90
12119;DHT22;6123;48.864;9.200;2024-03-22T03:09:11;7.90;99.90
12119;DHT22;6123;48.864;9.200;2024-03-22T03:11:39;7.90;99.90
12119;DHT22;6123;48.864;9.200;2024-03-22T03:14:04;7.80;99.90
12119;DHT22;6123;48.864;9.200;2024-03-22T03:16:30;7.80;99.90
12119;DHT22;6123;48.864;9.200;2024-03-22T03:18:55;7.80;99.90
12119;DHT22;6123;48.864;9.200;2024-03-22T03:21:21;7.80;99.90
12119;DHT22;6123;48.864;9.200;2024-03-22T03:23:47;7.80;99.90
12119;DHT22;6123;48.864;9.200;2024-03-22T03:26:13;7.90;99.90
12119;DHT22;6123;48.864;9.200;2024-03-22T03:28:38;7.90;99.90
12119;DHT22;6123;48.864;9.200;2024-03-22T03:31:04;7.80;99.90
12119;DHT22;6123;48.864;9.200;2024-03-22T03:33:30;7.80;99.90
12119;DHT22;6123;48.864;9.200;2024-03-22T03:35:55;7.90;99.90
12119;DHT22;6123;48.864;9.200;2024-03-22T03:38:21;7.90;99.90
12119;DHT22;6123;48.864;9.200;2024-03-22T03:40:47;7.80;99.90
12119;DHT22;6123;48.864;9.200;2024-03-22T03:43:13;7.70;99.90
12119;DHT22;6123;48.864;9.200;2024-03-22T03:45:38;7.70;99.90
12119;DHT22;6123;48.864;9.200;2024-03-22T03:48:04;7.60;99.90
12119;DHT22;6123;48.864;9.200;2024-03-22T03:50:30;7.60;99.90
12119;DHT22;6123;48.864;9.200;2024-03-22T03:52:56;7.60;99.90
12119;DHT22;6123;48.864;9.200;2024-03-22T03:55:22;7.50;99.90
12119;DHT22;6123;48.864;9.200;2024-03-22T03:57:50;7.40;99.90
12119;DHT22;6123;48.864;9.200;2024-03-22T04:00:15;7.30;99.90
12119;DHT22;6123;48.864;9.200;2024-03-22T04:02:41;7.40;99.90
12119;DHT22;6123;48.864;9.200;2024-03-22T04:05:07;7.40;99.90
12119;DHT22;6123;48.864;9.200;2024-03-22T04:07:32;7.40;99.90
12119;DHT22;6123;48.864;9.200;2024-03-22T04:09:58;7.40;99.90
12119;DHT22;6123;48.864;9.200;2024-03-22T04:12:26;7.40;99.90
12119;DHT22;6123;48.864;9.200;2024-03-22T04:14:52;7.40;99.90
12119;DHT22;6123;48.864;9.200;2024-03-22T04:17:18;7.40;99.90
12119;DHT22;6123;48.864;9.200;2024-03-22T04:19:43;7.30;99.90
12119;DHT22;6123;48.864;9.200;2024-03-22T04:22:09;7.30;99.90
12119;DHT22;6123;48.864;9.200;2024-03-22T04:24:34;7.30;99.90
12119;DHT22;6123;48.864;9.200;2024-03-22T04:27:00;7.30;99.90
12119;DHT22;6123;48.864;9.200;2024-03-22T04:29:25;7.40;99.90
12119;DHT22;6123;48.864;9.200;2024-03-22T04:31:51;7.30;99.90
12119;DHT22;6123;48.864;9.200;2024-03-22T04:34:16;7.40;99.90
12119;DHT22;6123;48.864;9.200;2024-03-22T04:36:42;7.40;99.90
12119;DHT22;6123;48.864;9.200;2024-03-22T04:39:08;7.40;99.90
12119;DHT22;6123;48.864;9.200;2024-03-22T04:41:35;7.40;99.90
12119;DHT22;6123;48.864;9.200;2024-03-22T04:44:00;7.40;99.90
12119;DHT22;6123;48.864;9.200;2024-03-22T04:46:26;7.50;99.90
12119;DHT22;6123;48.864;9.200;2024-03-22T04:48:51;7.60;99.90
12119;DHT22;6123;48.864;9.200;2024-03-22T04:51:17;7.60;99.90
12119;DHT22;6123;48.864;9.200;2024-03-22T04:53:42;7.60;99.90
12119;DHT22;6123;48.864;9.200;2024-03-22T04:56:09;7.60;99.90
12119;DHT22;6123;48.864;9.200;2024-03-22T04:58:35;7.60;99.90
12119;DHT22;6123;48.864;9.200;2024-03-22T05:01:00;7.60;99.90
12119;DHT22;6123;48.864;9.200;2024-03-22T05:03:26;7.40;99.90
12119;DHT22;6123;48.864;9.200;2024-03-22T05:05:52;7.70;99.90
12119;DHT22;6123;48.864;9.200;2024-03-22T05:08:17;7.70;99.90
12119;DHT22;6123;48.864;9.200;2024-03-22T05:10:43;7.60;99.90
12119;DHT22;6123;48.864;9.200;2024-03-22T05:13:09;7.50;99.90
12119;DHT22;6123;48.864;9.200;2024-03-22T05:15:34;7.50;99.90
12119;DHT22;6123;48.864;9.200;2024-03-22T05:18:00;7.50;99.90
12119;DHT22;6123;48.864;9.200;2024-03-22T05:20:25;7.50;99.90
12119;DHT22;6123;48.864;9.200;2024-03-22T05:22:52;7.50;99.90
12119;DHT22;6123;48.864;9.200;2024-03-22T05:25:17;7.60;99.90
12119;DHT22;6123;48.864;9.200;2024-03-22T05:27:44;7.60;99.90
12119;DHT22;6123;48.864;9.200;2024-03-22T05:30:11;7.70;99.90
12119;DHT22;6123;48.864;9.200;2024-03-22T05:32:37;7.70;99.90
12119;DHT22;6123;48.864;9.200;2024-03-22T05:35:02;7.80;99.90
12119;DHT22;6123;48.864;9.200;2024-03-22T05:37:28;7.70;99.90
12119;DHT22;6123;48.864;9.200;2024-03-22T05:39:54;7.70;99.90
12119;DHT22;6123;48.864;9.200;2024-03-22T05:42:19;7.80;99.90
12119;DHT22;6123;48.864;9.200;2024-03-22T05:44:45;7.80;99.90
12119;DHT22;6123;48.864;9.200;2024-03-22T05:47:11;7.80;99.90
12119;DHT22;6123;48.864;9.200;2024-03-22T05:49:36;7.80;99.90
12119;DHT22;6123;48.864;9.200;2024-03-22T05:52:02;7.90;99.90
12119;DHT22;6123;48.864;9.200;2024-03-22T05:54:28;7.90;99.90
12119;DHT22;6123;48.864;9.200;2024-03-22T05:56:53;8.00;99.90
12119;DHT22;6123;48.864;9.200;2024-03-22T05:59:19;8.10;99.90
12119;DHT22;6123;48.864;9.200;2024-03-22T06:01:44;8.10;99.90
12119;DHT22;6123;48.864;9.200;2024-03-22T06:04:10;8.10;99.90
12119;DHT22;6123;48.864;9.200;2024-03-22T06:06:36;8.10;99.90
12119;DHT22;6123;48.864;9.200;2024-03-22T06:09:04;8.20;99.90
12119;DHT22;6123;48.864;9.200;2024-03-22T06:11:34;8.10;99.90
12119;DHT22;6123;48.864;9.200;2024-03-22T06:14:00;8.10;99.90
12119;DHT22;6123;48.864;9.200;2024-03-22T06:16:25;8.20;99.90
12119;DHT22;6123;48.864;9.200;2024-03-22T06:18:51;8.20;99.90
12119;DHT22;6123;48.864;9.200;2024-03-22T06:21:17;8.20;99.90
12119;DHT22;6123;48.864;9.200;2024-03-22T06:23:49;8.20;99.90
12119;DHT22;6123;48.864;9.200;2024-03-22T06:26:15;8.20;99.90
12119;DHT22;6123;48.864;9.200;2024-03-22T06:28:40;8.30;99.90
12119;DHT22;6123;48.864;9.200;2024-03-22T06:31:06;8.50;99.90
12119;DHT22;6123;48.864;9.200;2024-03-22T06:33:31;8.60;99.90
12119;DHT22;6123;48.864;9.200;2024-03-22T06:35:57;8.60;99.90
12119;DHT22;6123;48.864;9.200;2024-03-22T06:38:23;8.80;99.90
12119;DHT22;6123;48.864;9.200;2024-03-22T06:40:48;8.80;99.90
12119;DHT22;6123;48.864;9.200;2024-03-22T06:43:14;8.90;99.90
12119;DHT22;6123;48.864;9.200;2024-03-22T06:45:39;9.10;99.90
12119;DHT22;6123;48.864;9.200;2024-03-22T06:48:05;9.20;99.90
12119;DHT22;6123;48.864;9.200;2024-03-22T06:50:30;9.40;99.90
12119;DHT22;6123;48.864;9.200;2024-03-22T06:52:56;9.50;99.90
12119;DHT22;6123;48.864;9.200;2024-03-22T06:55:22;9.60;99.90
12119;DHT22;6123;48.864;9.200;2024-03-22T06:57:49;9.70;99.90
12119;DHT22;6123;48.864;9.200;2024-03-22T07:00:15;9.80;99.90
12119;DHT22;6123;48.864;9.200;2024-03-22T07:02:41;10.00;99.90
12119;DHT22;6123;48.864;9.200;2024-03-22T07:05:08;10.20;99.90
12119;DHT22;6123;48.864;9.200;2024-03-22T07:07:37;10.40;99.90
12119;DHT22;6123;48.864;9.200;2024-03-22T07:10:03;10.50;99.90
12119;DHT22;6123;48.864;9.200;2024-03-22T07:12:33;10.60;99.90
12119;DHT22;6123;48.864;9.200;2024-03-22T07:15:00;10.80;99.90
12119;DHT22;6123;48.864;9.200;2024-03-22T07:17:26;10.80;99.90
12119;DHT22;6123;48.864;9.200;2024-03-22T07:19:52;11.00;99.90
12119;DHT22;6123;48.864;9.200;2024-03-22T07:22:18;11.10;99.90
12119;DHT22;6123;48.864;9.200;2024-03-22T07:24:44;11.20;99.90
12119;DHT22;6123;48.864;9.200;2024-03-22T07:27:10;11.30;99.90
12119;DHT22;6123;48.864;9.200;2024-03-22T07:29:35;11.30;99.90
12119;DHT22;6123;48.864;9.200;2024-03-22T07:32:01;11.40;99.90
12119;DHT22;6123;48.864;9.200;2024-03-22T07:34:28;11.40;99.90
12119;DHT22;6123;48.864;9.200;2024-03-22T07:36:54;11.50;99.90
12119;DHT22;6123;48.864;9.200;2024-03-22T07:39:19;11.50;99.90
12119;DHT22;6123;48.864;9.200;2024-03-22T07:41:45;11.70;99.90
12119;DHT22;6123;48.864;9.200;2024-03-22T07:44:10;11.90;99.90
12119;DHT22;6123;48.864;9.200;2024-03-22T07:46:36;11.80;99.90
12119;DHT22;6123;48.864;9.200;2024-03-22T07:49:02;11.90;99.90
12119;DHT22;6123;48.864;9.200;2024-03-22T07:51:29;12.00;99.90
12119;DHT22;6123;48.864;9.200;2024-03-22T07:53:55;12.10;99.90
12119;DHT22;6123;48.864;9.200;2024-03-22T07:56:21;12.10;99.90
12119;DHT22;6123;48.864;9.200;2024-03-22T07:58:47;12.30;99.90
12119;DHT22;6123;48.864;9.200;2024-03-22T08:01:12;12.40;99.90
12119;DHT22;6123;48.864;9.200;2024-03-22T08:03:38;12.40;99.90
12119;DHT22;6123;48.864;9.200;2024-03-22T08:06:04;12.50;99.90
12119;DHT22;6123;48.864;9.200;2024-03-22T08:08:29;12.80;99.90
12119;DHT22;6123;48.864;9.200;2024-03-22T08:10:55;12.90;99.90
12119;DHT22;6123;48.864;9.200;2024-03-22T08:13:21;13.20;99.90
12119;DHT22;6123;48.864;9.200;2024-03-22T08:15:46;13.40;99.90
12119;DHT22;6123;48.864;9.200;2024-03-22T08:18:12;13.80;99.90
12119;DHT22;6123;48.864;9.200;2024-03-22T08:20:38;14.20;99.90
12119;DHT22;6123;48.864;9.200;2024-03-22T08:23:05;14.40;99.90
12119;DHT22;6123;48.864;9.200;2024-03-22T08:25:30;14.40;99.90
12119;DHT22;6123;48.864;9.200;2024-03-22T08:27:57;14.20;99.90
12119;DHT22;6123;48.864;9.200;2024-03-22T08:30:24;14.50;99.90
12119;DHT22;6123;48.864;9.200;2024-03-22T08:32:50;14.90;99.90
12119;DHT22;6123;48.864;9.200;2024-03-22T08:35:16;14.80;99.90
12119;DHT22;6123;48.864;9.200;2024-03-22T08:37:42;15.40;99.90
12119;DHT22;6123;48.864;9.200;2024-03-22T08:40:08;15.80;99.90
12119;DHT22;6123;48.864;9.200;2024-03-22T08:42:33;16.20;99.90
12119;DHT22;6123;48.864;9.200;2024-03-22T08:44:59;16.20;99.80
12119;DHT22;6123;48.864;9.200;2024-03-22T08:47:25;16.10;99.90
12119;DHT22;6123;48.864;9.200;2024-03-22T08:49:51;15.80;99.90
12119;DHT22;6123;48.864;9.200;2024-03-22T08:52:16;15.80;99.90
12119;DHT22;6123;48.864;9.200;2024-03-22T08:54:42;15.80;99.90
12119;DHT22;6123;48.864;9.200;2024-03-22T08:57:07;15.90;99.90
12119;DHT22;6123;48.864;9.200;2024-03-22T08:59:33;15.90;99.90
12119;DHT22;6123;48.864;9.200;2024-03-22T09:02:00;16.10;99.90
12119;DHT22;6123;48.864;9.200;2024-03-22T09:04:26;16.10;99.90
12119;DHT22;6123;48.864;9.200;2024-03-22T09:06:51;16.20;99.90
12119;DHT22;6123;48.864;9.200;2024-03-22T09:09:17;16.30;99.90
12119;DHT22;6123;48.864;9.200;2024-03-22T09:11:43;16.30;99.90
12119;DHT22;6123;48.864;9.200;2024-03-22T09:14:08;16.40;99.90
12119;DHT22;6123;48.864;9.200;2024-03-22T09:16:34;16.60;99.90
12119;DHT22;6123;48.864;9.200;2024-03-22T09:19:00;16.70;99.90
12119;DHT22;6123;48.864;9.200;2024-03-22T09:21:25;16.70;98.90
12119;DHT22;6123;48.864;9.200;2024-03-22T09:23:51;16.80;98.50
12119;DHT22;6123;48.864;9.200;2024-03-22T09:26:16;16.90;97.50
12119;DHT22;6123;48.864;9.200;2024-03-22T09:28:42;17.00;95.90
12119;DHT22;6123;48.864;9.200;2024-03-22T09:31:11;17.30;96.60
12119;DHT22;6123;48.864;9.200;2024-03-22T09:33:36;17.60;94.10
12119;DHT22;6123;48.864;9.200;2024-03-22T09:36:02;17.90;93.00
12119;DHT22;6123;48.864;9.200;2024-03-22T09:38:28;18.10;92.00
12119;DHT22;6123;48.864;9.200;2024-03-22T09:40:54;18.50;90.90
12119;DHT22;6123;48.864;9.200;2024-03-22T09:43:21;18.60;89.40
12119;DHT22;6123;48.864;9.200;2024-03-22T09:45:48;18.50;84.90
12119;DHT22;6123;48.864;9.200;2024-03-22T09:48:18;18.40;86.00
12119;DHT22;6123;48.864;9.200;2024-03-22T09:50:47;18.60;85.40
12119;DHT22;6123;48.864;9.200;2024-03-22T09:53:20;18.70;83.10
12119;DHT22;6123;48.864;9.200;2024-03-22T09:55:48;18.80;77.70
12119;DHT22;6123;48.864;9.200;2024-03-22T09:58:14;18.50;81.80
12119;DHT22;6123;48.864;9.200;2024-03-22T10:00:40;18.80;76.00
12119;DHT22;6123;48.864;9.200;2024-03-22T10:03:06;18.70;73.10
12119;DHT22;6123;48.864;9.200;2024-03-22T10:05:33;19.10;73.80
12119;DHT22;6123;48.864;9.200;2024-03-22T10:07:58;19.40;71.70
12119;DHT22;6123;48.864;9.200;2024-03-22T10:10:25;19.20;66.30
12119;DHT22;6123;48.864;9.200;2024-03-22T10:12:51;18.50;68.70
12119;DHT22;6123;48.864;9.200;2024-03-22T10:15:18;18.30;71.40
12119;DHT22;6123;48.864;9.200;2024-03-22T10:17:45;17.20;73.10
12119;DHT22;6123;48.864;9.200;2024-03-22T10:20:13;17.20;75.20
12119;DHT22;6123;48.864;9.200;2024-03-22T10:22:58;17.00;75.70
12119;DHT22;6123;48.864;9.200;2024-03-22T10:25:27;17.00;76.20
12119;DHT22;6123;48.864;9.200;2024-03-22T10:27:56;17.50;79.10
12119;DHT22;6123;48.864;9.200;2024-03-22T10:30:24;17.60;75.50
12119;DHT22;6123;48.864;9.200;2024-03-22T10:32:51;17.10;79.00
12119;DHT22;6123;48.864;9.200;2024-03-22T10:35:17;17.60;77.00
12119;DHT22;6123;48.864;9.200;2024-03-22T10:37:43;18.00;72.90
12119;DHT22;6123;48.864;9.200;2024-03-22T10:40:10;17.70;75.30
12119;DHT22;6123;48.864;9.200;2024-03-22T10:42:40;18.00;73.10
12119;DHT22;6123;48.864;9.200;2024-03-22T10:45:10;18.50;72.00
12119;DHT22;6123;48.864;9.200;2024-03-22T10:47:37;19.30;70.80
12119;DHT22;6123;48.864;9.200;2024-03-22T10:50:07;19.50;62.20
12119;DHT22;6123;48.864;9.200;2024-03-22T10:52:47;19.30;63.10
12119;DHT22;6123;48.864;9.200;2024-03-22T10:55:24;19.50;58.10
12119;DHT22;6123;48.864;9.200;2024-03-22T10:57:53;19.80;57.10
12119;DHT22;6123;48.864;9.200;2024-03-22T11:00:27;19.40;56.60
12119;DHT22;6123;48.864;9.200;2024-03-22T11:02:53;19.50;56.00
12119;DHT22;6123;48.864;9.200;2024-03-22T11:05:20;19.40;56.20
12119;DHT22;6123;48.864;9.200;2024-03-22T11:07:45;19.50;54.10
12119;DHT22;6123;48.864;9.200;2024-03-22T11:10:12;19.90;54.30
12119;DHT22;6123;48.864;9.200;2024-03-22T11:12:41;20.10;54.50
12119;DHT22;6123;48.864;9.200;2024-03-22T11:15:09;19.80;53.30
12119;DHT22;6123;48.864;9.200;2024-03-22T11:17:36;20.00;54.00
12119;DHT22;6123;48.864;9.200;2024-03-22T11:20:02;19.70;54.10
12119;DHT22;6123;48.864;9.200;2024-03-22T11:22:27;19.40;55.50
12119;DHT22;6123;48.864;9.200;2024-03-22T11:24:53;19.60;52.10
12119;DHT22;6123;48.864;9.200;2024-03-22T11:27:18;20.20;49.70
12119;DHT22;6123;48.864;9.200;2024-03-22T11:29:45;20.50;48.60
12119;DHT22;6123;48.864;9.200;2024-03-22T11:32:12;19.90;48.40
12119;DHT22;6123;48.864;9.200;2024-03-22T11:34:38;19.80;49.60
12119;DHT22;6123;48.864;9.200;2024-03-22T11:37:05;19.60;46.80
12119;DHT22;6123;48.864;9.200;2024-03-22T11:39:33;19.90;41.20
12119;DHT22;6123;48.864;9.200;2024-03-22T11:42:01;20.50;40.90
12119;DHT22;6123;48.864;9.200;2024-03-22T11:44:27;20.90;37.10
12119;DHT22;6123;48.864;9.200;2024-03-22T11:46:53;21.00;36.30
12119;DHT22;6123;48.864;9.200;2024-03-22T11:49:19;20.90;40.10
12119;DHT22;6123;48.864;9.200;2024-03-22T11:51:45;20.90;32.50
12119;DHT22;6123;48.864;9.200;2024-03-22T11:54:10;21.40;30.50
12119;DHT22;6123;48.864;9.200;2024-03-22T11:56:36;21.30;28.50
12119;DHT22;6123;48.864;9.200;2024-03-22T11:59:02;21.00;30.60
12119;DHT22;6123;48.864;9.200;2024-03-22T12:01:29;20.70;29.00
12119;DHT22;6123;48.864;9.200;2024-03-22T12:03:55;20.80;30.70
12119;DHT22;6123;48.864;9.200;2024-03-22T12:06:21;20.50;28.50
12119;DHT22;6123;48.864;9.200;2024-03-22T12:08:47;20.30;28.70
12119;DHT22;6123;48.864;9.200;2024-03-22T12:11:13;19.60;28.10
12119;DHT22;6123;48.864;9.200;2024-03-22T12:13:39;19.10;32.00
12119;DHT22;6123;48.864;9.200;2024-03-22T12:16:05;18.90;34.30
12119;DHT22;6123;48.864;9.200;2024-03-22T12:18:31;19.30;34.70
12119;DHT22;6123;48.864;9.200;2024-03-22T12:20:57;19.70;33.10
12119;DHT22;6123;48.864;9.200;2024-03-22T12:23:22;19.50;33.50
12119;DHT22;6123;48.864;9.200;2024-03-22T12:25:50;19.00;34.80
12119;DHT22;6123;48.864;9.200;2024-03-22T12:28:15;19.00;35.80
12119;DHT22;6123;48.864;9.200;2024-03-22T12:30:41;19.10;35.70
12119;DHT22;6123;48.864;9.200;2024-03-22T12:33:07;19.20;36.10
12119;DHT22;6123;48.864;9.200;2024-03-22T12:35:40;19.40;36.40
12119;DHT22;6123;48.864;9.200;2024-03-22T12:38:06;19.50;35.20
12119;DHT22;6123;48.864;9.200;2024-03-22T12:40:32;20.00;35.50
12119;DHT22;6123;48.864;9.200;2024-03-22T12:42:59;20.10;32.50
12119;DHT22;6123;48.864;9.200;2024-03-22T12:45:25;20.10;30.00
12119;DHT22;6123;48.864;9.200;2024-03-22T12:47:51;20.40;30.40
12119;DHT22;6123;48.864;9.200;2024-03-22T12:50:18;20.40;29.90
12119;DHT22;6123;48.864;9.200;2024-03-22T12:52:43;20.60;33.20
12119;DHT22;6123;48.864;9.200;2024-03-22T12:55:10;20.90;31.10
12119;DHT22;6123;48.864;9.200;2024-03-22T12:57:36;21.00;29.50
12119;DHT22;6123;48.864;9.200;2024-03-22T13:00:02;21.10;30.60
12119;DHT22;6123;48.864;9.200;2024-03-22T13:02:29;21.20;28.00
12119;DHT22;6123;48.864;9.200;2024-03-22T13:04:57;21.00;28.10
12119;DHT22;6123;48.864;9.200;2024-03-22T13:07:23;20.80;28.00
12119;DHT22;6123;48.864;9.200;2024-03-22T13:09:50;20.40;28.70
12119;DHT22;6123;48.864;9.200;2024-03-22T13:12:15;20.00;28.60
12119;DHT22;6123;48.864;9.200;2024-03-22T13:14:41;20.30;29.10
12119;DHT22;6123;48.864;9.200;2024-03-22T13:17:06;20.80;30.00
12119;DHT22;6123;48.864;9.200;2024-03-22T13:19:34;20.80;27.90
12119;DHT22;6123;48.864;9.200;2024-03-22T13:21:59;20.30;31.20
12119;DHT22;6123;48.864;9.200;2024-03-22T13:24:25;19.50;31.20
12119;DHT22;6123;48.864;9.200;2024-03-22T13:26:50;18.90;33.60
12119;DHT22;6123;48.864;9.200;2024-03-22T13:29:16;19.00;35.10
12119;DHT22;6123;48.864;9.200;2024-03-22T13:31:41;19.30;36.50
12119;DHT22;6123;48.864;9.200;2024-03-22T13:34:07;19.60;33.50
12119;DHT22;6123;48.864;9.200;2024-03-22T13:36:32;19.70;36.00
12119;DHT22;6123;48.864;9.200;2024-03-22T13:38:59;19.90;34.10
12119;DHT22;6123;48.864;9.200;2024-03-22T13:41:24;20.20;35.90
12119;DHT22;6123;48.864;9.200;2024-03-22T13:43:50;20.20;34.30
12119;DHT22;6123;48.864;9.200;2024-03-22T13:46:15;19.80;31.60
12119;DHT22;6123;48.864;9.200;2024-03-22T13:48:43;19.50;34.00
12119;DHT22;6123;48.864;9.200;2024-03-22T13:51:08;20.00;34.70
12119;DHT22;6123;48.864;9.200;2024-03-22T13:53:36;20.10;32.30
12119;DHT22;6123;48.864;9.200;2024-03-22T13:56:02;19.90;31.60
12119;DHT22;6123;48.864;9.200;2024-03-22T13:58:28;19.60;29.80
12119;DHT22;6123;48.864;9.200;2024-03-22T14:00:53;19.90;33.10
12119;DHT22;6123;48.864;9.200;2024-03-22T14:03:19;19.90;35.30
12119;DHT22;6123;48.864;9.200;2024-03-22T14:05:45;20.00;35.00
12119;DHT22;6123;48.864;9.200;2024-03-22T14:08:11;19.70;35.80
12119;DHT22;6123;48.864;9.200;2024-03-22T14:10:37;19.60;36.40
12119;DHT22;6123;48.864;9.200;2024-03-22T14:13:03;19.30;36.00
12119;DHT22;6123;48.864;9.200;2024-03-22T14:15:29;18.70;34.20
12119;DHT22;6123;48.864;9.200;2024-03-22T14:17:58;18.60;35.80
12119;DHT22;6123;48.864;9.200;2024-03-22T14:20:23;18.80;36.80
12119;DHT22;6123;48.864;9.200;2024-03-22T14:22:50;18.60;34.50
12119;DHT22;6123;48.864;9.200;2024-03-22T14:25:16;18.70;37.40
12119;DHT22;6123;48.864;9.200;2024-03-22T14:27:42;18.80;31.60
12119;DHT22;6123;48.864;9.200;2024-03-22T14:30:11;18.40;25.80
12119;DHT22;6123;48.864;9.200;2024-03-22T14:32:38;18.30;24.70
12119;DHT22;6123;48.864;9.200;2024-03-22T14:35:04;18.10;25.20
12119;DHT22;6123;48.864;9.200;2024-03-22T14:37:31;18.00;24.70
12119;DHT22;6123;48.864;9.200;2024-03-22T14:39:56;18.00;24.50
12119;DHT22;6123;48.864;9.200;2024-03-22T14:42:23;17.90;25.40
12119;DHT22;6123;48.864;9.200;2024-03-22T14:44:48;18.00;25.00
12119;DHT22;6123;48.864;9.200;2024-03-22T14:47:14;17.90;25.80
12119;DHT22;6123;48.864;9.200;2024-03-22T14:49:39;18.00;23.80
12119;DHT22;6123;48.864;9.200;2024-03-22T14:52:06;17.70;25.30
12119;DHT22;6123;48.864;9.200;2024-03-22T14:54:31;17.70;25.00
12119;DHT22;6123;48.864;9.200;2024-03-22T14:56:57;17.70;26.30
12119;DHT22;6123;48.864;9.200;2024-03-22T14:59:22;17.80;25.60
12119;DHT22;6123;48.864;9.200;2024-03-22T15:01:48;17.80;26.10
12119;DHT22;6123;48.864;9.200;2024-03-22T15:04:14;17.70;24.90
12119;DHT22;6123;48.864;9.200;2024-03-22T15:06:39;17.80;26.00
12119;DHT22;6123;48.864;9.200;2024-03-22T15:09:05;17.70;27.20
12119;DHT22;6123;48.864;9.200;2024-03-22T15:11:36;17.60;25.80
12119;DHT22;6123;48.864;9.200;2024-03-22T15:14:02;17.50;26.20
12119;DHT22;6123;48.864;9.200;2024-03-22T15:16:28;17.50;26.40
12119;DHT22;6123;48.864;9.200;2024-03-22T15:18:53;17.50;27.30
12119;DHT22;6123;48.864;9.200;2024-03-22T15:21:19;17.50;28.40
12119;DHT22;6123;48.864;9.200;2024-03-22T15:23:46;17.60;29.10
12119;DHT22;6123;48.864;9.200;2024-03-22T15:26:11;17.60;29.10
12119;DHT22;6123;48.864;9.200;2024-03-22T15:28:37;17.60;29.10
12119;DHT22;6123;48.864;9.200;2024-03-22T15:31:03;17.70;30.00
12119;DHT22;6123;48.864;9.200;2024-03-22T15:33:28;17.70;30.00
12119;DHT22;6123;48.864;9.200;2024-03-22T15:35:54;17.50;32.00
12119;DHT22;6123;48.864;9.200;2024-03-22T15:38:19;17.70;34.40
12119;DHT22;6123;48.864;9.200;2024-03-22T15:40:46;17.70;33.10
12119;DHT22;6123;48.864;9.200;2024-03-22T15:43:12;17.50;32.00
12119;DHT22;6123;48.864;9.200;2024-03-22T15:45:38;17.50;33.40